Latest Observation

67 Stations

10 Minute Data
as of 5/10/26 8:40 AM PDT
Station Date Time Temp (°F) RH (%) Dew Pt (°F) Wind Spd (mph) Wind Dir (°) Wind Gust (mph) Wind Gst Dir (°) Latest Rain (In) Soil Moist (%) Soil Temp (°F) Daily Rain (In) Daily Min Temp (°F) Daily Max Temp (°F) Daily Max Wind (mph)
Hobart Mills 5/10/26 0840 51.3   1.6 56   19 36.4   6.0 2.2   2.2 NE | 45 3.5   2.5 NE | 48 0.00 - 32.0   0.0 0.03 28.9   0.0 73.1   2.5 9.4   0.9
Prosser Dam 5/10/26 0840 48.1   2.1 65   24 37.0   5.9 1.3   0.7 ENE | 58 4.1   0.5 ENE | 70 0.00 21.1   1.1 53.2   1.4 0.00 33.2   2.7 48.7   1.6 4.1   0.4
West Incline Village 5/10/26 0830 55.6   5.0 44   19 34.1   4.6 0.0   0.1 ENE | 58 1.4   0.7 NE | 54 0.00 31.9   0.5 47.8   0.8 0.00 49.6   5.0 58.9   7.6 6.8   2.4
Incline Village (Fairview Blvd) 5/10/26 0840 53.2   1.5 52   1 35.9   0.8 0.0   0.2 N | 0 0.0   2.7 NE | 54 0.00 25.7   0.3 55.2   1.6 0.00 50.8   4.1 59.3   6.4 4.7   1.0
Incline Village (Diamond Peak) 5/10/26 0840 59.8   5.5 33   1 30.9   4.0 0.0   8.8 N | 0 0.0   13.7 SSW | 205 0.00 9.0   0.2 51.0   1.9 0.00 56.5   6.9 59.8   5.4 8.9   4.7
Incline Village (Mill Creek) 5/10/26 0840 53.5   4.2 46   29 33.3   8.6 0.0   1.0 N | 0 0.0   4.5 ESE | 105 0.00 10.8   0.1 48.6   0.9 0.00 48.9   3.4 60.7   10.6 3.0   2.1
Incline Village (Lakeshore Blvd) 5/10/26 0840 52.0   2.2 72   12 43.2   1.8 1.4   0.4 SSW | 196 2.4   2.6 S | 182 0.00 30.6   0.8 52.4   0.5 0.00 40.8   1.3 52.3   2.0 4.3   1.4
Glenbrook 5/10/26 0840 52.5   2.9 68   11 42.4   1.1 2.0   0.7 W | 265 4.5   0.7 WSW | 257 0.00 44.3   0.0 46.5   0.3 0.00 42.7   2.0 53.1   3.2 5.7   0.5
Zephyr Cove 5/10/26 0840 52.6   1.7 61   11 39.5   2.8 0.0   0.1 N | 0 0.0   1.5 NNE | 31 0.00 - 34.3   0.0 0.00 47.2   2.7 52.8   1.7 0.0   1.6
Kingsbury Grade 5/10/26 0840 57.7   1.5 45   0 36.4   1.1 0.2   5.7 WSW | 254 2.1   10.7 W | 275 0.00 6.4   0.1 55.7   1.9 0.00 45.3   2.5 58.2   1.7 4.3   8.9
South Daggett Pass (Ridge) 5/10/26 0840 60.4   7.3 27   23 26.1   9.0 3.8   0.0 E | 90 8.1   2.7 ENE | 67 0.00 6.7   0.0 51.7   1.3 0.00 55.8   6.5 61.0   6.4 11.9   3.0
Palomino Valley 5/10/26 0840 64.8   4.4 20   18 22.9   11.5 0.1   1.2 NNE | 31 3.8   1.1 NE | 54 0.00 7.2   0.0 68.6   0.9 0.00 39.2   2.1 65.2   4.1 6.2   2.4
East Cold Springs 5/10/26 0840 62.2   1.3 27   9 28.0   5.7 5.4   0.5 ENE | 71 9.1   0.6 ENE | 69 0.00 1.8   0.1 58.6   0.4 0.00 53.9   3.4 62.7   1.4 9.1   2.4
Peavine 5/10/26 0840 66.8   9.4 20   14 23.9   5.2 7.1   6.5 S | 179 12.0   7.2 S | 175 0.00 - 53.4   0.0 0.00 54.6   8.6 67.2   9.0 13.8   5.0
West Verdi Peak 5/10/26 0840 63.1   6.4 24   17 25.6   7.9 3.3   2.1 SE | 134 5.5   1.2 ESE | 116 0.00 18.1   1.3 55.2   0.7 0.00 53.4   5.0 64.0   6.9 5.5   0.5
West Verdi 5/10/26 0840 57.6   0.7 46   14 36.8   6.4 1.7   0.9 E | 93 3.8   1.0 E | 91 0.00 7.8   0.1 65.0   1.1 0.00 45.9   0.5 58.0   0.5 7.1   0.6
South Verdi 5/10/26 0840 60.5   4.2 41   11 36.6   2.2 0.5   1.8 WSW | 248 3.8   1.7 WSW | 248 0.00 15.8   0.3 61.1   1.1 0.00 54.3   2.6 63.5   3.3 14.2   1.2
Northwest Reno 5/10/26 0830 62.4   2.8 29   15 29.6   8.2 4.5   2.2 E | 87 6.5   0.5 E | 82 0.00 24.2   0.2 66.6   1.2 0.00 56.6   2.2 64.8   1.2 7.6   9.9
North Lawton 5/10/26 0840 59.3   0.6 39   5 34.1   3.6 4.5   1.0 WSW | 252 6.7   1.2 WSW | 257 0.00 - 60.4   0.0 0.00 50.2   2.2 59.7   1.0 12.0   0.6
West Reno (Mogul) 5/10/26 0830 59.4   1.1 40   10 35.0   4.6 0.0   0.9 E | 98 0.6   4.3 E | 92 0.00 36.1   0.6 64.3   0.8 0.00 49.2   0.7 65.1   2.6 12.0   0.8
Caughlin (Hunter Lake Trail) 9/16/25 0800 59.7   3.5 41   11 35.9   2.7 0.0   0.0 N | 0 0.0   0.0 ENE | 66 0.00 15.7   0.0 69.8   0.5 0.00 55.7   3.2 67.7   9.1 9.4   0.9
ArrowCreek 5/10/26 0840 60.2   0.4 38   11 34.6   6.2 3.6   2.3 N | 354 6.7   1.2 NW | 312 0.00 - 32.0   0.0 0.00 51.6   1.2 62.6   1.8 11.0   1.9
Tracy 5/10/26 0840 63.6   1.5 24   17 26.3   12.2 1.0   0.5 NW | 305 3.1   1.2 W | 281 0.00 8.1   0.0 68.7   0.6 0.00 49.6   2.6 64.2   2.2 4.3   4.6
Virginia Highlands 5/10/26 0840 66.6   6.8 17   18 20.2   11.4 6.3   3.3 E | 86 10.6   4.2 E | 91 0.00 8.0   0.1 60.3   1.1 0.00 59.6   6.0 67.5   7.3 14.3   6.8
Virginia City 5/10/26 0840 64.0   4.0 20   9 22.6   5.5 2.5   0.2 SSE | 153 4.8   0.6 SE | 139 0.00 8.2   0.2 59.4   0.7 0.00 58.0   4.4 64.5   3.7 5.1   22.0
Six Mile Canyon 9/9/25 0630 60.2   9.6 37   6 33.7   4.8 4.1   2.5 W | 277 6.1   2.9 WNW | 286 0.00 12.5   0.0 75.5   0.7 0.00 57.9   7.6 64.4   1.9 7.0   3.9
Mt Rose Highway 4/30/26 0510 40.8   4.7 47   13 22.3   1.3 2.3   0.2 WSW | 243 4.8   2.1 WSW | 246 0.00 24.1   0.3 43.0   0.8 0.00 40.5   4.7 43.0   5.3 7.7   0.4
Pleasant Valley 5/10/26 0840 62.3   2.0 40   5 37.8   1.1 7.5   5.1 SW | 226 11.3   6.5 SW | 218 0.00 2.9   0.1 66.7   1.5 0.00 48.3   0.7 62.8   1.8 12.2   6.0
New Washoe City 5/10/26 0840 62.3   2.8 34   15 33.4   6.8 2.9   1.7 SW | 215 5.3   1.9 SW | 214 0.00 4.5   0.1 64.1   1.3 0.00 49.2   1.3 62.8   2.9 11.3   0.7
Franktown Creek 5/10/26 0840 62.1   1.4 37   10 35.8   4.6 0.3   0.6 SE | 128 1.9   0.7 ESE | 111 0.00 11.2   0.0 59.8   1.1 0.00 47.3   1.9 62.6   1.6 4.0   0.5
Musgrove Creek 5/10/26 0840 63.2   3.3 33   10 33.5   3.8 0.9   2.3 NE | 45 2.6   3.2 NE | 56 0.00 39.9   1.7 55.4   0.5 0.00 57.0   4.7 63.6   2.8 3.0   2.9
East Carson 11/23/24 0110 28.6   28.4 - - 4.7   11.0 SW | 220 14.7   10.1 SW | 219 0.02 - 50.9   0.1 0.02 -25.9   79.1 42.9   14.6 16.0   10.7
Kings Canyon 5/10/26 0840 59.0   0.6 43   12 36.3   5.9 1.2   2.1 NE | 42 3.4   2.1 ENE | 58 0.00 13.9   0.6 60.0   1.2 0.00 48.1   0.8 59.8   0.8 7.1   0.7
Carson City (Voltaire Canyon) 5/10/26 0840 59.2   1.6 41   13 35.5   5.8 2.1   0.4 SE | 138 5.0   0.1 ESE | 111 0.00 2.9   0.1 65.2   1.4 0.00 56.3   2.5 66.7   3.8 13.3   4.4
Jacks Valley 5/10/26 0840 60.8   2.5 36   15 33.6   6.6 0.7   3.9 NNE | 32 3.6   4.0 NE | 47 0.00 12.9   0.3 65.1   1.2 0.00 50.7   3.2 61.7   3.2 3.7   3.8
Genoa 5/10/26 0840 59.2   1.4 41   14 35.7   6.2 0.8   0.2 N | 360 2.6   1.2 NE | 52 0.00 6.4   0.6 58.2   1.0 0.00 49.2   1.3 60.1   1.3 3.4   1.1
South Genoa (Walleys Hot Springs) 5/10/26 0840 58.1   1.2 40   17 34.0   8.1 3.9   1.1 NNW | 346 5.8   0.7 NNW | 348 0.00 14.0   0.4 66.6   1.2 0.00 42.3   1.0 58.5   1.3 6.1   0.2
SW Gardnerville (HWY 88) 5/10/26 0840 55.1   0.3 60   2 41.5   0.7 1.9   1.2 WSW | 240 3.2   0.1 SW | 222 0.00 3.4   0.0 61.9   1.3 0.00 41.7   0.2 55.4   0.1 5.6   1.9
Sheridan 5/10/26 0840 56.6   1.8 41   22 33.0   9.4 2.8   0.9 N | 357 5.1   1.0 NNE | 14 0.00 3.3   0.6 63.3   1.2 0.00 45.1   0.1 57.1   0.1 5.1   1.6
Ruhenstroth 5/10/26 0840 61.4   1.7 30   16 29.6   9.5 1.6   1.2 NW | 307 4.2   1.6 WNW | 302 0.00 12.4   0.1 62.1   1.2 0.00 45.9   1.1 61.7   1.1 5.5   1.5
Double Spring 5/10/26 0840 62.4   2.7 31   9 31.7   3.9 8.3   4.7 SSE | 151 11.7   4.7 SSE | 154 0.00 31.1   0.0 59.8   1.1 0.00 37.1   3.3 62.7   2.7 12.8   5.7
North Topaz Lake 5/10/26 0840 64.4   3.1 26   13 28.9   7.2 1.3   0.1 E | 81 3.5   2.4 NE | 52 0.00 9.4   0.0 62.2   0.8 0.00 57.6   3.3 64.9   3.2 6.6   0.1
Wild Oat Mountain 5/10/26 0840 61.0   3.1 30   15 29.0   7.5 2.3   2.2 NNW | 337 5.1   3.2 NNW | 337 0.00 16.9   0.1 62.4   1.4 0.00 56.5   3.2 62.8   1.3 5.1   4.8
Smith Valley 5/10/26 0840 60.2   0.9 36   11 32.9   5.9 3.7   0.6 NNE | 12 6.5   0.4 NNE | 26 0.00 5.9   0.0 66.2   1.4 0.00 49.3   1.3 63.8   0.5 8.4   1.0
Pine Grove Mountain 5/10/26 0840 62.8   10.1 19   14 19.6   4.5 6.2   3.1 ESE | 116 11.2   4.2 ESE | 117 0.00 19.9   0.6 53.1   0.9 0.00 54.8   7.6 63.1   9.9 14.5   1.4
Paradise Hill 5/10/26 0840 62.6   1.2 26   1 27.0   0.1 3.9   1.4 ESE | 112 6.6   0.1 E | 89 0.00 8.0   0.0 62.7   0.9 0.00 42.6   0.4 63.2   0.9 17.1   9.7
Winnemucca 5/10/26 0840 63.7   3.9 19   7 21.1   3.9 5.2   3.2 NNW | 327 8.6   3.0 NW | 312 0.00 5.8   0.1 62.2   0.6 0.00 44.6   6.8 64.8   3.5 11.7   0.1
NE Elko 5/10/26 0840 52.3   4.6 29   2 20.9   5.4 5.7   4.3 E | 83 7.9   4.0 E | 94 0.00 12.4   0.0 57.5   0.6 0.00 30.6   3.8 53.0   4.4 8.7   0.1
North Elko 5/10/26 0840 55.7   1.0 26   8 21.8   5.2 3.6   1.8 NE | 50 6.3   2.6 ENE | 63 0.00 28.5   0.0 58.8   0.1 0.00 43.9   2.6 56.2   2.0 12.7   2.8
South Elko 5/10/26 0840 65.0   10.3 30   4 32.5   6.1 1.7   2.4 SE | 133 5.0   2.7 ESE | 111 0.00 18.2   0.0 58.2   0.8 0.00 48.7   0.9 - 12.2   1.4
Lamoille 1/28/26 1720 33.2   0.5 65   17 22.8   6.3 5.8   1.5 SSE | 166 7.7   1.9 SE | 139 0.00 12.2   0.0 33.4   0.1 0.02 23.5   2.0 36.5   5.9 25.6   17.4
Reid Gardner Sub 5/10/26 0840 86.8   6.2 10   3 23.6   2.2 4.6   4.0 NW | 319 9.6   6.1 N | 351 0.00 25.1   0.4 76.7   2.1 0.00 72.8   17.1 87.2   5.8 17.5   7.5
Corn Creek 5/10/26 0840 81.0   2.3 12   2 23.1   5.8 9.8   0.7 W | 266 14.8   1.4 W | 271 0.00 3.9   0.1 80.3   1.2 0.00 72.7   1.7 81.4   2.3 17.8   0.7
Lucky Strike 5/10/26 0840 73.8   0.6 12   5 18.4   7.0 5.0   3.0 ESE | 115 10.1   2.0 E | 101 0.00 4.6   0.1 72.5   1.3 0.00 64.2   1.7 74.1   0.6 14.3   2.1
Lower Angel Peak 5/10/26 0840 68.8   0.0 16   6 21.0   8.0 3.0   1.1 N | 7 6.2   1.2 NNW | 332 0.00 9.8   0.1 61.1   1.3 0.00 55.2   0.2 69.1   0.4 10.7   1.1
Angel Peak 5/10/26 0840 57.6   1.2 21   4 17.9   5.3 7.8   2.7 ESE | 120 12.2   3.0 ESE | 114 0.00 3.5   0.4 56.3   1.2 0.00 54.9   1.3 58.0   1.4 12.2   3.0
Upper Kyle Canyon 5/10/26 0840 63.3   1.2 21   1 22.7   2.3 1.1   4.1 SSE | 167 3.0   7.0 SSE | 152 0.00 12.9   0.3 60.7   1.1 0.00 50.2   8.9 64.6   0.2 9.3   4.7
Mt Charleston 5/10/26 0840 65.4   0.3 19   3 22.2   4.1 1.4   1.1 ENE | 73 6.3   0.2 SE | 130 0.00 18.1   0.0 52.9   1.4 0.00 54.5   1.1 65.9   0.2 9.1   0.4
Mid Kyle Canyon 5/10/26 0840 69.6   1.0 16   3 21.5   5.4 4.6   0.6 ESE | 113 8.6   0.4 E | 88 0.00 7.0   0.0 63.7   0.7 0.00 56.6   1.1 69.9   1.2 18.1   2.4
Blue Diamond 5/10/26 0840 81.4   1.5 14   1 28.3   2.4 2.0   4.6 SSE | 156 8.6   1.7 SE | 137 0.00 3.0   0.1 72.7   0.2 0.00 57.4   12.4 82.3   1.0 8.6   10.6
Artesian Sub 5/10/26 0840 85.5   0.3 11   4 24.5   7.6 1.1   0.6 W | 267 4.1   1.4 SW | 233 0.00 13.1   0.1 76.5   0.9 0.00 75.4   0.6 86.3   0.5 10.3   4.1
North Henderson 5/10/26 0840 88.1   2.2 9   4 23.3   7.2 5.9   1.8 NNE | 18 11.3   4.5 N | 5 0.00 9.7   0.2 84.5   1.7 0.00 78.4   1.3 90.9   1.4 11.3   3.8
Sandy Valley 5/10/26 0840 84.5   5.6 13   11 27.8   10.8 7.3   4.0 SSW | 211 10.4   4.5 SSW | 206 0.00 4.5   0.0 82.1   1.5 0.00 66.1   3.3 85.5   3.7 12.4   0.4
Searchlight 5/10/26 0840 80.3   4.8 12   3 23.6   9.9 14.1   9.2 N | 353 20.9   9.2 N | 3 0.00 4.8   0.1 79.8   1.8 0.00 68.6   1.3 80.9   4.5 24.2   10.9
Laughlin 5/10/26 0840 95.0   10.7 10   12 31.2   10.2 12.6   9.4 N | 358 21.1   16.4 NNW | 348 0.00 4.2   0.0 87.3   1.1 0.00 77.6   0.4 95.7   4.3 21.1   10.8
31Mission Hills 5/10/26 0840 82.4   0.5 10   8 20.4   13.9 5.4   0.4 NW | 306 12.9   2.2 NW | 311 0.00 3.6   0.0 81.3   0.8 0.00 74.6   0.9 83.2   4.3 16.0   4.1
32 Enterprise Sierra Cliffs 5/10/26 0840 81.3   0.5 10   7 18.6   13.1 0.8   4.7 SSW | 204 2.2   5.5 SW | 217 0.00 2.1   0.0 75.9   0.1 0.00 73.7   1.4 84.8   0.6 12.8   5.6
Max     95.0 72 43.2 14.1 - 21.1 - 0.00 44.3 87.3 0.03 78.4 95.7 24.2
Avg     64.2 31 29.4 3.3 - 6.3 - 0.00 12.9 61.6 - - - -
Min     48.1 9 17.9 0.0 - 0.0 - 0.00 1.8 32.0 0.00 28.9 48.7 0.0